Time;durP1;ratioP1;P1;durP2;ratioP2;P2;SDS_P1;SDS_P2;PMS_P1;PMS_P2;Temp;Humidity;BMP_temperature;BMP_pressure;BME280_temperature;BME280_humidity;BME280_pressure;Samples;Min_cycle;Max_cycle;Signal;HPM_P1;HPM_P2
2021/06/24 00:01:07;;;;;;;25.80;15.18;;;;;;;20.13;52.31;100629.84;5015424;28;20529;-74
2021/06/24 00:03:35;;;;;;;27.63;15.65;;;;;;;20.05;52.44;100633.56;5028416;28;20069;-73
2021/06/24 00:06:04;;;;;;;31.48;15.93;;;;;;;19.94;52.82;100637.97;5011954;28;20124;-72
2021/06/24 00:08:30;;;;;;;25.17;15.52;;;;;;;19.84;53.43;100634.34;4993578;28;20085;-69
2021/06/24 00:10:59;;;;;;;24.33;12.73;;;;;;;19.71;53.62;100614.75;5008050;28;20124;-69
2021/06/24 00:13:27;;;;;;;26.42;11.43;;;;;;;19.78;53.25;100629.22;5007053;28;20073;-69
2021/06/24 00:15:55;;;;;;;24.33;12.80;;;;;;;19.76;53.25;100628.72;5005282;28;20478;-69
2021/06/24 00:18:23;;;;;;;20.10;12.40;;;;;;;19.63;53.42;100605.94;5007200;28;20111;-70
2021/06/24 00:20:50;;;;;;;25.25;15.43;;;;;;;19.74;53.58;100625.41;5011951;28;20133;-71
2021/06/24 00:23:18;;;;;;;27.30;15.65;;;;;;;19.68;53.81;100623.94;5008953;28;20077;-64
2021/06/24 00:25:45;;;;;;;22.33;12.05;;;;;;;19.53;53.84;100611.13;5006461;28;20230;-67
2021/06/24 00:28:15;;;;;;;23.00;12.75;;;;;;;19.58;53.63;100610.94;5008221;28;20160;-68
2021/06/24 00:30:47;;;;;;;24.58;12.50;;;;;;;19.72;53.28;100627.72;5006614;28;20050;-68
2021/06/24 00:33:15;;;;;;;20.30;11.57;;;;;;;19.52;53.26;100607.47;5009590;28;20049;-66
2021/06/24 00:35:43;;;;;;;20.65;11.82;;;;;;;19.75;53.37;100625.06;5005095;28;20137;-67
2021/06/24 00:38:10;;;;;;;22.88;10.38;;;;;;;19.78;53.09;100615.03;5007032;28;20133;-69
2021/06/24 00:40:39;;;;;;;9.50;6.13;;;;;;;19.86;52.72;100617.84;5010916;28;20103;-69
2021/06/24 00:43:08;;;;;;;7.95;5.03;;;;;;;19.93;51.99;100614.47;5010648;28;20126;-67
2021/06/24 00:45:36;;;;;;;17.85;8.93;;;;;;;19.98;52.40;100617.09;5006713;28;20125;-66
2021/06/24 00:48:04;;;;;;;13.57;6.60;;;;;;;20.00;52.06;100609.09;5010363;28;20080;-67
2021/06/24 00:50:31;;;;;;;21.52;10.18;;;;;;;19.95;52.20;100609.28;5011457;28;20081;-66
2021/06/24 00:52:58;;;;;;;18.42;10.73;;;;;;;19.88;52.47;100609.81;5008835;28;20042;-68
2021/06/24 00:55:40;;;;;;;27.45;15.15;;;;;;;19.81;53.10;100608.69;5012395;28;20137;-69
2021/06/24 00:58:15;;;;;;;30.10;15.55;;;;;;;19.80;53.29;100618.38;5003420;28;20049;-68
2021/06/24 01:00:44;;;;;;;21.20;12.05;;;;;;;19.68;53.23;100599.25;5009984;28;20077;-68
2021/06/24 01:03:13;;;;;;;25.63;14.85;;;;;;;19.62;53.83;100606.25;5008379;28;20044;-65
2021/06/24 01:05:41;;;;;;;26.42;15.20;;;;;;;19.53;53.89;100609.13;5009274;28;20073;-68
2021/06/24 01:08:10;;;;;;;27.33;13.00;;;;;;;19.57;53.62;100609.28;5008402;28;20089;-71
2021/06/24 01:10:38;;;;;;;23.75;12.00;;;;;;;19.44;53.78;100597.00;5010347;28;20124;-71
2021/06/24 01:13:05;;;;;;;19.60;13.27;;;;;;;19.52;53.82;100604.66;5011008;28;20100;-63
2021/06/24 01:15:33;;;;;;;27.08;13.77;;;;;;;19.47;53.94;100604.00;5010736;28;20049;-72
2021/06/24 01:18:01;;;;;;;16.85;10.35;;;;;;;19.27;53.93;100582.91;5008871;28;20131;-72
2021/06/24 01:20:35;;;;;;;15.50;8.73;;;;;;;19.45;53.69;100601.47;5003190;28;20482;-73
2021/06/24 01:23:05;;;;;;;22.17;11.35;;;;;;;19.44;53.48;100605.50;4997684;28;20567;-75
2021/06/24 01:25:33;;;;;;;19.63;10.87;;;;;;;19.43;54.08;100603.84;5016050;28;20530;-75
2021/06/24 01:28:02;;;;;;;11.88;5.82;;;;;;;19.43;53.15;100606.69;5022944;28;20326;-76
2021/06/24 01:30:29;;;;;;;7.87;4.57;;;;;;;19.50;53.26;100600.47;5028090;28;20076;-78
2021/06/24 01:32:57;;;;;;;8.13;4.82;;;;;;;19.54;52.74;100602.28;5015027;28;20346;-78
2021/06/24 01:35:27;;;;;;;9.48;4.32;;;;;;;19.55;52.86;100595.44;5012563;28;20089;-79
2021/06/24 01:38:06;;;;;;;8.32;4.03;;;;;;;19.51;52.78;100591.63;5007112;28;20113;-76
2021/06/24 01:40:34;;;;;;;8.38;4.35;;;;;;;19.54;52.78;100593.78;5001363;28;20057;-75
2021/06/24 01:43:03;;;;;;;8.93;4.30;;;;;;;19.60;52.30;100594.44;5011800;28;20130;-75
2021/06/24 01:45:30;;;;;;;12.70;5.55;;;;;;;19.61;52.30;100602.59;5009303;28;20045;-76
2021/06/24 01:47:57;;;;;;;10.38;5.15;;;;;;;19.57;52.16;100604.44;4997064;28;20046;-75
2021/06/24 01:50:24;;;;;;;11.30;5.15;;;;;;;19.58;52.18;100594.75;5013303;28;20109;-77
2021/06/24 01:52:51;;;;;;;8.50;5.47;;;;;;;19.72;52.06;100608.72;5016097;28;20049;-80
2021/06/24 01:55:32;;;;;;;8.55;4.68;;;;;;;19.78;51.79;100615.88;5007350;28;20474;-80
2021/06/24 01:58:00;;;;;;;10.13;6.20;;;;;;;19.81;51.79;100603.84;5016354;28;20054;-76
2021/06/24 02:00:27;;;;;;;10.43;6.10;;;;;;;19.69;51.81;100600.91;5010547;28;20057;-81
2021/06/24 02:02:56;;;;;;;9.73;6.78;;;;;;;19.68;52.01;100607.75;5014098;28;20485;-80
2021/06/24 02:05:24;;;;;;;15.02;6.68;;;;;;;19.69;51.99;100588.75;5008018;28;20050;-73
2021/06/24 02:07:50;;;;;;;15.20;6.18;;;;;;;19.65;52.11;100602.75;5001251;28;20140;-70
2021/06/24 02:10:17;;;;;;;9.23;5.18;;;;;;;19.62;52.19;100607.09;5008151;28;20128;-71
2021/06/24 02:12:45;;;;;;;12.50;7.18;;;;;;;19.32;52.40;100558.09;5016212;28;20050;-73
2021/06/24 02:15:14;;;;;;;13.18;7.20;;;;;;;19.54;52.81;100593.78;5013090;28;20129;-67
2021/06/24 02:17:41;;;;;;;16.15;7.95;;;;;;;19.49;52.50;100588.34;5012890;28;20133;-76
2021/06/24 02:20:12;;;;;;;14.68;6.88;;;;;;;19.55;52.63;100595.44;5005888;28;20125;-80
2021/06/24 02:22:39;;;;;;;16.85;7.07;;;;;;;19.54;52.53;100593.78;5010811;28;20454;-74
2021/06/24 02:25:07;;;;;;;10.60;5.88;;;;;;;19.52;52.23;100590.47;5004108;28;20069;-73
2021/06/24 02:27:34;;;;;;;12.35;6.57;;;;;;;19.48;52.04;100577.31;5013576;28;20166;-74
2021/06/24 02:30:01;;;;;;;13.38;4.45;;;;;;;19.44;52.21;100571.50;5013835;28;20096;-70
2021/06/24 02:32:28;;;;;;;7.13;3.53;;;;;;;19.50;51.75;100581.47;5008447;28;20073;-72
2021/06/24 02:34:56;;;;;;;9.48;5.25;;;;;;;19.59;51.49;100575.78;5008987;28;20046;-66
2021/06/24 02:37:23;;;;;;;9.15;4.07;;;;;;;19.37;51.38;100543.72;5018151;28;20054;-65
2021/06/24 02:39:50;;;;;;;7.60;3.70;;;;;;;19.64;51.07;100576.44;5010526;28;20111;-66
2021/06/24 02:42:17;;;;;;;6.38;3.78;;;;;;;19.68;51.25;100582.25;5012203;28;20074;-66
2021/06/24 02:44:44;;;;;;;7.00;3.05;;;;;;;19.62;51.01;100567.44;5014345;28;20080;-67
2021/06/24 02:47:11;;;;;;;8.45;3.38;;;;;;;19.71;50.85;100575.09;5010709;28;20081;-67
2021/06/24 02:49:42;;;;;;;5.78;3.22;;;;;;;19.79;50.58;100588.34;5026044;28;20048;-67
2021/06/24 02:52:09;;;;;;;6.95;2.50;;;;;;;19.80;50.09;100584.38;5010465;28;20042;-67
2021/06/24 02:54:37;;;;;;;6.28;3.47;;;;;;;19.76;50.15;100583.38;5020461;28;20077;-67
2021/06/24 02:57:04;;;;;;;3.53;1.83;;;;;;;19.71;50.05;100567.41;5013238;28;20061;-67
2021/06/24 02:59:31;;;;;;;4.72;2.60;;;;;;;19.75;49.44;100581.72;5002751;28;20046;-67
2021/06/24 03:01:58;;;;;;;10.27;2.67;;;;;;;19.72;49.37;100571.06;5007610;28;20108;-66
2021/06/24 03:04:25;;;;;;;5.43;2.50;;;;;;;19.80;49.13;100585.19;5013472;28;20096;-66
2021/06/24 03:06:53;;;;;;;3.63;2.33;;;;;;;19.74;48.67;100563.06;5024843;28;20141;-66
2021/06/24 03:09:20;;;;;;;4.88;2.10;;;;;;;19.78;48.30;100573.38;4999337;28;20494;-69
2021/06/24 03:11:47;;;;;;;4.05;2.40;;;;;;;19.83;48.18;100572.34;5008745;28;20045;-69
2021/06/24 03:14:15;;;;;;;3.45;1.70;;;;;;;19.80;47.87;100588.03;5009241;28;20129;-69
2021/06/24 03:16:42;;;;;;;2.13;1.23;;;;;;;19.77;47.28;100576.56;5023352;28;20133;-67
2021/06/24 03:19:09;;;;;;;3.13;1.25;;;;;;;19.87;47.26;100579.00;5013273;28;20133;-67
2021/06/24 03:21:37;;;;;;;1.27;0.77;;;;;;;19.78;46.90;100547.03;5012385;28;20038;-67
2021/06/24 03:24:04;;;;;;;0.75;0.75;;;;;;;19.94;46.42;100570.78;5018291;28;20141;-65
2021/06/24 03:26:31;;;;;;;5.20;1.90;;;;;;;20.03;46.13;100576.38;5006508;28;20129;-64
2021/06/24 03:28:58;;;;;;;2.05;1.40;;;;;;;19.96;46.32;100562.75;5003734;28;20096;-65
2021/06/24 03:31:25;;;;;;;4.30;1.95;;;;;;;20.03;46.06;100570.69;5010015;28;20046;-65
2021/06/24 03:33:52;;;;;;;2.28;1.40;;;;;;;19.93;46.17;100560.63;5013446;28;20132;-64
2021/06/24 03:36:20;;;;;;;2.80;1.63;;;;;;;19.86;46.21;100551.81;5009812;28;20089;-65
2021/06/24 03:38:48;;;;;;;1.38;1.08;;;;;;;19.85;46.05;100544.50;5013873;28;20130;-64
2021/06/24 03:41:23;;;;;;;3.13;1.30;;;;;;;19.94;45.94;100567.94;5006881;28;20149;-66
2021/06/24 03:43:50;;;;;;;3.75;1.50;;;;;;;20.04;45.92;100561.03;5001646;28;20046;-68
2021/06/24 03:46:18;;;;;;;5.68;1.50;;;;;;;19.88;46.03;100546.63;5001166;28;20129;-67
2021/06/24 03:48:45;;;;;;;2.88;1.63;;;;;;;19.76;46.07;100550.22;5012954;28;20046;-67
2021/06/24 03:51:12;;;;;;;2.40;1.63;;;;;;;19.80;45.94;100547.53;5003325;28;20124;-65
2021/06/24 03:53:39;;;;;;;1.13;0.82;;;;;;;19.77;45.58;100585.88;5011702;28;20057;-65
2021/06/24 03:56:06;;;;;;;0.77;0.70;;;;;;;19.80;45.69;100571.03;5011935;28;20077;-69
2021/06/24 03:58:33;;;;;;;1.35;0.82;;;;;;;19.86;45.42;100565.97;5008090;28;20483;-69
2021/06/24 04:01:00;;;;;;;3.03;1.67;;;;;;;19.91;45.27;100577.13;5010136;28;20128;-72
2021/06/24 04:03:27;;;;;;;4.70;1.15;;;;;;;19.65;45.52;100558.25;5012986;28;20112;-71
2021/06/24 04:05:54;;;;;;;1.90;0.73;;;;;;;19.72;45.74;100585.22;5011262;28;20478;-65
2021/06/24 04:08:21;;;;;;;5.78;1.40;;;;;;;19.69;45.63;100571.75;5001589;28;20462;-67
2021/06/24 04:11:01;;;;;;;1.90;1.20;;;;;;;19.67;45.80;100569.28;5010516;28;20041;-63
2021/06/24 04:13:28;;;;;;;0.73;0.73;;;;;;;19.67;45.56;100577.78;5012247;28;20038;-64
2021/06/24 04:15:55;;;;;;;3.50;1.00;;;;;;;19.56;45.54;100574.47;5009107;28;20534;-61
2021/06/24 04:18:22;;;;;;;1.35;0.80;;;;;;;19.60;45.58;100592.44;5010185;28;20086;-61
2021/06/24 04:20:49;;;;;;;1.15;0.90;;;;;;;19.61;45.46;100588.41;5012086;28;20070;-61
2021/06/24 04:23:16;;;;;;;0.60;0.60;;;;;;;19.47;45.79;100576.50;5011167;28;20149;-61
2021/06/24 04:25:42;;;;;;;1.92;1.10;;;;;;;19.41;45.53;100578.69;5001058;28;20550;-62
2021/06/24 04:28:10;;;;;;;3.58;0.98;;;;;;;19.52;45.67;100607.47;5000046;28;20511;-63
2021/06/24 04:30:36;;;;;;;1.35;1.23;;;;;;;19.49;45.65;100599.66;5009421;28;20077;-68
2021/06/24 04:33:03;;;;;;;0.50;0.50;;;;;;;19.47;45.67;100585.00;5007525;28;20132;-68
2021/06/24 04:35:30;;;;;;;1.50;1.40;;;;;;;19.54;45.44;100596.63;5007067;28;20081;-66
2021/06/24 04:37:59;;;;;;;0.68;0.52;;;;;;;19.51;45.29;100588.81;5026099;28;20052;-66
2021/06/24 04:40:26;;;;;;;1.70;1.30;;;;;;;19.55;45.38;100606.78;5007763;28;20084;-66
2021/06/24 04:42:53;;;;;;;2.88;1.25;;;;;;;19.63;45.13;100607.97;5010803;28;20096;-67
2021/06/24 04:45:20;;;;;;;0.93;0.82;;;;;;;19.58;45.40;100603.25;5007057;28;20101;-67
2021/06/24 04:47:51;;;;;;;0.95;0.70;;;;;;;19.54;45.40;100612.78;5010284;28;20132;-66
2021/06/24 04:50:18;;;;;;;1.25;0.73;;;;;;;19.47;45.66;100613.31;5000898;28;20121;-65
2021/06/24 04:52:45;;;;;;;1.30;0.90;;;;;;;19.43;45.63;100618.00;5004863;28;20084;-67
2021/06/24 04:55:12;;;;;;;0.40;0.40;;;;;;;19.49;45.43;100602.50;5010499;28;20046;-67
2021/06/24 04:57:40;;;;;;;4.43;1.65;;;;;;;19.48;45.44;100595.16;5001587;28;20410;-68
2021/06/24 05:00:08;;;;;;;1.02;0.90;;;;;;;19.50;45.41;100608.97;5009379;28;20082;-68
2021/06/24 05:02:34;;;;;;;0.80;0.80;;;;;;;19.39;45.17;100583.88;5002744;28;20077;-68
2021/06/24 05:05:05;;;;;;;0.35;0.35;;;;;;;19.46;45.20;100603.16;5006218;28;20497;-67
2021/06/24 05:07:32;;;;;;;0.65;0.57;;;;;;;19.34;45.30;100588.88;5012225;28;20048;-66
2021/06/24 05:09:59;;;;;;;0.63;0.52;;;;;;;19.22;45.53;100591.59;5008671;28;20144;-64
2021/06/24 05:12:29;;;;;;;;;;;;;;;19.17;46.10;100612.41;5000705;28;20632;-68
2021/06/24 05:14:56;;;;;;;0.63;0.52;;;;;;;19.35;45.77;100618.84;5016864;28;19929;-66
2021/06/24 05:17:23;;;;;;;3.22;0.88;;;;;;;19.40;45.31;100627.16;5008109;28;20110;-69
2021/06/24 05:19:50;;;;;;;1.20;1.00;;;;;;;19.37;45.59;100620.19;5006684;28;20518;-66
2021/06/24 05:22:17;;;;;;;0.60;0.60;;;;;;;19.38;45.51;100619.03;5008160;28;20133;-64
2021/06/24 05:24:44;;;;;;;0.75;0.75;;;;;;;19.34;45.66;100611.53;5022363;28;20092;-64
2021/06/24 05:27:11;;;;;;;1.60;1.02;;;;;;;19.50;45.35;100621.13;5008121;28;20046;-69
2021/06/24 05:29:38;;;;;;;2.38;1.10;;;;;;;19.60;45.42;100620.75;4996782;28;20620;-71
2021/06/24 05:32:05;;;;;;;3.13;1.20;;;;;;;19.76;44.91;100617.38;5002752;28;20074;-64
2021/06/24 05:34:32;;;;;;;1.02;0.82;;;;;;;19.69;45.11;100611.41;5008514;28;20077;-63
2021/06/24 05:37:00;;;;;;;1.35;1.00;;;;;;;19.76;44.79;100612.56;5006420;28;20168;-63
2021/06/24 05:39:28;;;;;;;5.78;1.40;;;;;;;19.73;44.54;100601.91;5010823;28;20437;-65
2021/06/24 05:41:57;;;;;;;0.95;0.60;;;;;;;19.88;44.43;100623.16;5005330;28;20042;-65
2021/06/24 05:44:25;;;;;;;3.17;0.77;;;;;;;20.01;43.96;100584.41;5000735;28;20128;-65
2021/06/24 05:46:53;;;;;;;2.20;0.88;;;;;;;20.10;43.89;100597.34;5022745;28;20279;-64
2021/06/24 05:49:21;;;;;;;3.72;0.90;;;;;;;20.25;43.65;100612.91;5010804;28;20204;-64
2021/06/24 05:51:47;;;;;;;1.42;1.00;;;;;;;20.34;43.37;100610.84;5009882;28;20073;-64
2021/06/24 05:54:14;;;;;;;0.50;0.47;;;;;;;20.39;43.20;100618.31;5010691;28;20077;-62
2021/06/24 05:56:41;;;;;;;1.95;0.95;;;;;;;20.53;42.97;100618.91;5002895;28;20128;-63
2021/06/24 05:59:09;;;;;;;2.15;1.20;;;;;;;20.77;42.72;100606.00;5010113;28;20065;-64
2021/06/24 06:01:40;;;;;;;1.98;1.25;;;;;;;20.93;42.29;100592.84;5008069;28;20050;-64
2021/06/24 06:04:07;;;;;;;1.60;0.93;;;;;;;20.90;42.22;100621.09;5010823;28;20132;-64
2021/06/24 06:06:34;;;;;;;0.60;0.50;;;;;;;20.96;41.95;100614.03;5007929;28;20057;-64
2021/06/24 06:09:01;;;;;;;2.08;1.20;;;;;;;21.02;41.81;100613.44;5008879;28;20137;-64
2021/06/24 06:11:27;;;;;;;2.40;1.08;;;;;;;21.33;42.25;100609.25;4998228;28;20046;-64
2021/06/24 06:13:56;;;;;;;2.45;1.00;;;;;;;21.60;41.56;100621.16;4994988;28;20046;-65
2021/06/24 06:16:23;;;;;;;1.20;0.85;;;;;;;21.50;41.23;100605.41;5006301;28;20129;-69
2021/06/24 06:18:52;;;;;;;2.00;1.20;;;;;;;21.58;40.83;100606.50;5002197;28;20421;-74
2021/06/24 06:21:19;;;;;;;1.33;0.93;;;;;;;21.60;40.85;100587.06;4996737;28;20034;-64
2021/06/24 06:23:46;;;;;;;1.77;0.43;;;;;;;21.88;40.52;100630.69;4996967;28;20572;-67
2021/06/24 06:26:13;;;;;;;0.85;0.80;;;;;;;21.90;40.40;100621.78;5023783;28;20133;-63
2021/06/24 06:28:40;;;;;;;1.45;0.98;;;;;;;21.91;39.93;100634.78;5001063;28;20455;-72
2021/06/24 06:31:07;;;;;;;2.00;1.02;;;;;;;22.15;39.70;100628.31;4992423;28;20504;-64
2021/06/24 06:33:34;;;;;;;0.43;0.43;;;;;;;22.33;39.43;100638.25;5007658;28;20125;-62
2021/06/24 06:36:03;;;;;;;1.45;1.02;;;;;;;22.26;39.27;100635.19;4998245;28;20046;-63
2021/06/24 06:38:30;;;;;;;1.20;0.80;;;;;;;22.39;39.16;100636.81;5005226;28;20105;-65
2021/06/24 06:40:57;;;;;;;2.60;0.95;;;;;;;22.65;38.81;100633.53;5004323;28;20054;-63
2021/06/24 06:43:24;;;;;;;2.05;1.13;;;;;;;22.54;38.71;100631.56;4997827;28;20130;-64
2021/06/24 06:45:50;;;;;;;1.95;0.98;;;;;;;22.68;38.58;100644.19;5005949;28;20130;-62
2021/06/24 06:48:18;;;;;;;5.18;1.13;;;;;;;23.10;38.13;100643.00;5004408;28;20046;-64
2021/06/24 06:50:45;;;;;;;1.88;0.68;;;;;;;23.30;38.09;100653.34;5005141;28;20126;-65
2021/06/24 06:53:12;;;;;;;1.48;1.00;;;;;;;23.39;37.76;100650.34;5006314;28;20137;-63
2021/06/24 06:55:40;;;;;;;2.85;1.30;;;;;;;23.30;37.58;100633.41;5009508;28;20073;-63
2021/06/24 06:58:06;;;;;;;2.08;1.20;;;;;;;23.69;37.11;100645.03;5009979;28;20073;-64
2021/06/24 07:00:34;;;;;;;1.85;0.82;;;;;;;24.24;36.46;100651.72;5012142;28;20131;-63
2021/06/24 07:03:02;;;;;;;0.60;0.60;;;;;;;24.02;36.05;100655.25;5004606;28;20178;-64
2021/06/24 07:05:32;;;;;;;3.00;1.25;;;;;;;23.57;36.08;100639.41;5007147;28;20053;-64
2021/06/24 07:07:59;;;;;;;1.70;1.08;;;;;;;23.41;36.22;100671.56;5009513;28;20125;-64
2021/06/24 07:10:27;;;;;;;0.90;0.80;;;;;;;23.58;36.68;100669.56;4998559;28;20077;-64
2021/06/24 07:12:54;;;;;;;1.00;0.90;;;;;;;23.54;36.81;100671.50;5006545;28;20041;-64
2021/06/24 07:15:21;;;;;;;1.17;1.00;;;;;;;23.65;36.25;100672.59;5013104;28;20128;-64
2021/06/24 07:17:48;;;;;;;1.15;0.90;;;;;;;23.98;36.31;100675.13;5005366;28;20048;-64
2021/06/24 07:20:16;;;;;;;1.92;0.63;;;;;;;23.96;35.64;100653.88;5012255;28;20072;-65
2021/06/24 07:22:43;;;;;;;0.93;0.85;;;;;;;24.11;35.85;100678.72;5010099;28;20041;-65
2021/06/24 07:25:13;;;;;;;1.88;1.02;;;;;;;24.13;35.25;100659.19;5009455;28;20100;-65
2021/06/24 07:27:40;;;;;;;2.15;1.05;;;;;;;23.99;35.50;100681.66;5008080;28;20077;-65
2021/06/24 07:30:08;;;;;;;1.73;1.10;;;;;;;23.81;35.84;100659.22;5008283;28;20081;-65
2021/06/24 07:32:35;;;;;;;1.70;1.58;;;;;;;24.22;35.48;100691.22;5009897;28;20525;-65
2021/06/24 07:35:02;;;;;;;1.45;0.90;;;;;;;24.13;35.47;100668.56;5007103;28;20115;-65
2021/06/24 07:37:34;;;;;;;2.90;1.52;;;;;;;23.97;35.53;100679.19;5006578;28;20046;-65
2021/06/24 07:40:06;;;;;;;2.78;1.08;;;;;;;24.23;35.79;100672.88;5001910;28;20606;-64
2021/06/24 07:42:33;;;;;;;1.40;1.00;;;;;;;23.93;35.20;100612.69;5009281;28;20077;-64
2021/06/24 07:45:01;;;;;;;2.50;1.10;;;;;;;24.71;35.37;100687.91;5013225;28;20049;-64
2021/06/24 07:47:28;;;;;;;2.35;1.17;;;;;;;24.58;34.68;100683.53;5004036;28;20061;-64
2021/06/24 07:49:54;;;;;;;1.30;0.88;;;;;;;24.95;34.72;100689.66;5005927;28;20533;-65
2021/06/24 07:52:21;;;;;;;2.22;1.13;;;;;;;24.92;34.57;100693.25;5001681;28;20045;-65
2021/06/24 07:54:48;;;;;;;0.82;0.70;;;;;;;24.64;34.46;100662.03;5000974;28;20129;-65
2021/06/24 07:57:18;;;;;;;2.58;0.93;;;;;;;24.55;34.61;100678.59;4998337;28;20078;-64
2021/06/24 07:59:45;;;;;;;0.60;0.60;;;;;;;24.36;34.48;100693.59;5008532;28;20054;-65
2021/06/24 08:02:13;;;;;;;2.10;1.40;;;;;;;24.34;34.38;100702.53;5009579;28;20044;-64
2021/06/24 08:04:40;;;;;;;1.75;1.33;;;;;;;24.80;34.57;100677.09;5010672;28;20516;-65
2021/06/24 08:07:09;;;;;;;2.00;1.30;;;;;;;25.17;34.31;100690.97;5000065;28;20546;-64
2021/06/24 08:09:36;;;;;;;1.25;1.00;;;;;;;24.94;34.27;100670.03;5013113;28;20131;-64
2021/06/24 08:12:04;;;;;;;1.10;0.90;;;;;;;25.02;33.98;100692.66;5013071;28;20076;-64
2021/06/24 08:14:31;;;;;;;2.45;1.45;;;;;;;25.33;34.27;100667.19;5010155;28;20568;-64
2021/06/24 08:16:59;;;;;;;1.77;1.20;;;;;;;25.21;33.62;100643.28;5010531;28;20081;-64
2021/06/24 08:19:26;;;;;;;1.15;1.00;;;;;;;25.29;33.18;100664.25;5007413;28;20104;-66
2021/06/24 08:21:58;;;;;;;1.15;1.00;;;;;;;25.60;33.34;100686.09;5005281;28;20121;-63
2021/06/24 08:24:26;;;;;;;2.65;1.02;;;;;;;25.85;33.34;100671.47;5001691;28;20054;-65
2021/06/24 08:26:53;;;;;;;2.00;1.30;;;;;;;26.04;32.95;100677.09;5021110;28;20141;-63
2021/06/24 08:29:20;;;;;;;1.45;1.20;;;;;;;25.93;32.41;100673.25;5001405;28;20153;-64
2021/06/24 08:31:47;;;;;;;2.38;1.15;;;;;;;26.03;32.59;100683.22;5007669;28;20042;-67
2021/06/24 08:34:14;;;;;;;1.75;1.10;;;;;;;25.82;32.57;100669.38;5005497;28;20054;-71
2021/06/24 08:36:41;;;;;;;1.17;1.08;;;;;;;25.94;32.59;100686.31;5009146;28;20675;-73
2021/06/24 08:39:08;;;;;;;2.33;1.67;;;;;;;25.79;32.73;100696.66;5008537;28;20188;-73
2021/06/24 08:41:37;;;;;;;3.85;1.20;;;;;;;26.18;32.27;100696.53;5001968;28;20081;-70
2021/06/24 08:44:06;;;;;;;5.00;2.45;;;;;;;26.14;32.54;100687.06;5006695;28;20141;-71
2021/06/24 08:46:34;;;;;;;3.83;1.20;;;;;;;25.99;32.55;100689.72;5008164;28;20050;-69
2021/06/24 08:49:02;;;;;;;2.22;1.30;;;;;;;26.07;32.25;100693.50;5011357;28;20125;-70
2021/06/24 08:51:30;;;;;;;1.90;1.17;;;;;;;26.47;32.22;100686.41;5013144;28;20053;-69
2021/06/24 08:54:00;;;;;;;1.88;0.90;;;;;;;26.61;32.63;100692.34;5011042;28;20073;-69
2021/06/24 08:56:28;;;;;;;1.67;1.05;;;;;;;26.62;32.26;100679.69;5011933;28;20133;-70
2021/06/24 08:58:56;;;;;;;2.13;1.17;;;;;;;27.00;32.15;100708.44;5011823;28;20105;-71
2021/06/24 09:01:47;;;;;;;1.45;1.00;;;;;;;27.13;31.76;100687.75;5010707;28;20049;-70
2021/06/24 09:04:20;;;;;;;0.93;0.55;;;;;;;27.19;31.30;100681.69;5011872;28;20076;-73
2021/06/24 09:06:49;;;;;;;2.40;1.40;;;;;;;26.83;31.67;100682.00;5024045;28;20050;-71
2021/06/24 09:09:29;;;;;;;1.95;1.35;;;;;;;27.26;31.51;100696.13;5002897;28;20121;-68
2021/06/24 09:12:08;;;;;;;3.25;1.05;;;;;;;27.13;31.06;100684.06;5006495;28;20152;-71
2021/06/24 09:14:42;;;;;;;1.63;1.30;;;;;;;27.64;31.18;100687.13;5006312;28;20133;-71
2021/06/24 09:17:12;;;;;;;4.03;1.30;;;;;;;27.99;30.61;100685.03;5012638;28;20150;-71
2021/06/24 09:19:40;;;;;;;;;;;;;;;28.19;31.17;100692.16;5013252;28;20492;-71
2021/06/24 09:22:12;;;;;;;1.65;1.27;;;;;;;28.74;30.29;100692.16;5012982;28;20008;-71
2021/06/24 09:24:43;;;;;;;1.70;1.27;;;;;;;29.03;29.56;100690.31;5012859;28;20497;-71
2021/06/24 09:27:12;;;;;;;1.75;1.60;;;;;;;29.12;29.79;100686.22;4996919;28;20481;-71
2021/06/24 09:29:39;;;;;;;3.45;1.60;;;;;;;29.29;29.58;100699.84;4993238;28;20108;-71
2021/06/24 09:32:06;;;;;;;3.42;1.38;;;;;;;29.26;29.40;100695.72;5005540;28;20088;-71
2021/06/24 09:34:33;;;;;;;2.50;1.30;;;;;;;29.49;29.40;100691.69;5012727;28;20379;-71
2021/06/24 09:37:03;;;;;;;4.53;1.48;;;;;;;29.86;29.04;100693.44;5012374;28;20046;-71
2021/06/24 09:39:37;;;;;;;1.75;1.10;;;;;;;29.96;28.47;100686.88;5012485;28;20232;-71
2021/06/24 09:42:23;;;;;;;2.85;1.30;;;;;;;30.27;28.60;100693.91;5012497;28;20605;-71
2021/06/24 09:44:51;;;;;;;3.55;2.00;;;;;;;30.42;28.00;100669.59;5011946;28;20561;-71
2021/06/24 09:47:18;;;;;;;1.65;1.13;;;;;;;30.50;27.67;100718.59;5012807;28;20458;-71
2021/06/24 09:50:06;;;;;;;1.27;1.05;;;;;;;30.08;27.39;100665.47;5011854;28;20045;-71
2021/06/24 09:52:35;;;;;;;1.08;0.80;;;;;;;30.01;27.42;100689.34;5012450;28;20088;-70
2021/06/24 09:55:07;;;;;;;2.33;1.30;;;;;;;29.83;27.92;100695.09;5009113;28;20454;-70
2021/06/24 09:57:36;;;;;;;;;;;;;;;29.42;28.40;100686.75;4993134;28;20116;-70
2021/06/24 10:00:23;;;;;;;2.92;2.00;;;;;;;29.29;27.97;100694.09;4992592;28;19961;-71
2021/06/24 10:03:13;;;;;;;2.40;1.45;;;;;;;29.86;28.20;100691.41;5010783;28;20056;-70
2021/06/24 10:05:41;;;;;;;2.90;1.50;;;;;;;30.20;27.11;100691.03;5011672;28;20112;-71
2021/06/24 10:08:09;;;;;;;2.23;1.13;;;;;;;30.06;27.14;100682.38;5012628;28;20517;-71
2021/06/24 10:10:37;;;;;;;3.08;1.25;;;;;;;30.44;26.90;100680.72;5012083;28;20283;-70
2021/06/24 10:13:08;;;;;;;2.20;1.48;;;;;;;30.45;26.19;100686.06;5010833;28;20076;-71
2021/06/24 10:15:36;;;;;;;1.55;1.33;;;;;;;29.92;25.74;100675.38;5012160;28;20093;-72
2021/06/24 10:18:04;;;;;;;3.15;1.50;;;;;;;30.04;26.66;100693.47;5012153;28;20092;-70
2021/06/24 10:20:32;;;;;;;5.07;1.30;;;;;;;30.41;27.12;100678.66;5012055;28;20490;-70
2021/06/24 10:23:05;;;;;;;2.60;1.70;;;;;;;30.85;26.96;100692.59;5010359;28;20049;-71
2021/06/24 10:25:32;;;;;;;1.42;1.13;;;;;;;30.91;26.40;100699.59;5016035;28;20133;-70
2021/06/24 10:28:00;;;;;;;2.30;1.23;;;;;;;30.79;26.11;100687.69;5015452;28;20546;-71
2021/06/24 10:30:27;;;;;;;1.48;0.68;;;;;;;30.58;26.51;100674.09;5015935;28;20081;-70
2021/06/24 10:33:10;;;;;;;1.30;1.02;;;;;;;30.38;25.97;100682.38;5011337;28;20077;-70
2021/06/24 10:35:40;;;;;;;2.88;1.42;;;;;;;30.18;26.11;100685.66;4996127;28;20047;-70
2021/06/24 10:38:08;;;;;;;1.85;1.10;;;;;;;30.31;26.01;100686.06;4996289;28;20137;-69
2021/06/24 10:40:38;;;;;;;1.38;0.90;;;;;;;30.32;25.61;100696.34;5012710;28;20471;-70
2021/06/24 10:43:12;;;;;;;;;;;;;;;30.19;26.13;100692.28;5015680;28;20117;-70
2021/06/24 10:45:40;;;;;;;1.55;1.15;;;;;;;30.25;25.30;100689.78;5015604;28;19922;-71
2021/06/24 10:48:37;;;;;;;2.42;1.55;;;;;;;30.17;26.15;100683.19;5015674;28;20120;-70
2021/06/24 10:51:09;;;;;;;1.58;1.20;;;;;;;30.67;25.87;100677.38;5005837;28;20463;-70
2021/06/24 10:53:39;;;;;;;2.10;1.30;;;;;;;31.02;26.00;100690.06;5015680;28;20074;-70
2021/06/24 10:56:28;;;;;;;1.27;0.90;;;;;;;30.35;25.20;100675.38;5014820;28;20120;-70
2021/06/24 10:58:56;;;;;;;2.33;1.02;;;;;;;29.57;25.17;100623.47;5015367;28;20073;-70
2021/06/24 11:01:40;;;;;;;1.58;1.10;;;;;;;30.01;25.66;100685.63;5015612;28;20089;-71
2021/06/24 11:04:24;;;;;;;3.55;1.17;;;;;;;29.83;25.70;100663.41;5015493;28;20049;-71
2021/06/24 11:06:53;;;;;;;2.15;1.30;;;;;;;30.08;26.04;100679.88;5015731;28;20138;-70
2021/06/24 11:09:20;;;;;;;4.00;1.23;;;;;;;29.94;25.23;100664.25;5021076;28;20046;-70
2021/06/24 11:11:47;;;;;;;1.40;1.08;;;;;;;29.72;25.73;100674.94;5023544;28;20834;-70
2021/06/24 11:14:16;;;;;;;3.08;1.13;;;;;;;29.65;25.80;100671.22;5018811;28;20098;-70
2021/06/24 11:16:44;;;;;;;1.95;1.30;;;;;;;30.12;25.92;100672.06;5015326;28;20056;-70
2021/06/24 11:19:15;;;;;;;1.42;0.98;;;;;;;30.21;25.20;100675.38;5014842;28;20050;-70
2021/06/24 11:21:45;;;;;;;0.65;0.65;;;;;;;29.63;25.27;100685.19;5014977;28;20050;-70
2021/06/24 11:24:15;;;;;;;0.77;0.73;;;;;;;29.37;25.86;100677.69;5014768;28;20129;-70
2021/06/24 11:26:54;;;;;;;6.47;2.35;;;;;;;29.23;26.16;100676.44;5015002;28;20132;-70
2021/06/24 11:32:21;;;;;;;1.70;1.13;;;;;;;29.68;26.11;100664.66;5014246;28;20272;-72
2021/06/24 11:34:59;;;;;;;2.83;1.13;;;;;;;29.75;25.38;100662.59;5013474;28;20100;-71